AirNav   Air Wisconsin pilot careers
 
 401 users online  

KSLI Los Alamitos Army Airfield
Los Alamitos, California, USA

GOING TO LOS ALAMITOS?


FAA INFORMATION EFFECTIVE 29 MARCH 2018

Location

FAA Identifier: SLI
Lat/Long: 33-47-24.1080N / 118-03-05.1120W
33-47.401800N / 118-03.085200W
33.7900300 / -118.0514200
(estimated)
Elevation: 35.5 ft. / 10.8 m (surveyed)
Variation: 12E (2020)
From city: 1 mile SE of LOS ALAMITOS, CA
Time zone: UTC -7 (UTC -8 during Standard Time)
Zip code: 90720

Airport Operations

Airport use: Private use. Permission required prior to landing
Activation date: 04/1944
Control tower: yes
ARTCC: LOS ANGELES CENTER
FSS: HAWTHORNE FLIGHT SERVICE STATION
NOTAMs facility: SLI (NOTAM-D service available)
Attendance: MON 1400-0200Z++, ALL FRI 1400-0200Z++, ALL SAT-SUN 1530-2300Z++, ALL TUE-THU 1400-0500Z++
CLSD HOL. RSTD: PPR CTC AFLD OPS DSN 972-2571, C562-795-2571; HTTP://WWW.CALGUARD.CA.GOV/AA-LOSAI.
Segmented circle: no
Lights: SS-SR
Beacon: white-white-green (lighted military airport)
Operates sunset to sunrise.

Airport Communications

ATIS: 118.875 379.975
LOS ALAMITOS GROUND: 126.95 257.95 [1500-0500Z++ TUE-THU, 1600-0000Z++ FRI-MON; CLSD HOL]
LOS ALAMITOS TOWER: 123.85 251.15 [1500-0500Z++ TUE-THU, 1600-0000Z++ FRI-MON; CLSD HOL]
SOCAL APPROACH: 125.35
SOCAL DEPARTURE: 125.35
AFLD OPS ADVSY SVC: 126.2 237.2
ARNG AASF: 233.8 41.5
EMERG: 243.0
HAWWC SID: 125.35
RDR: 124.75 127.95 230.8 231.0 234.1
USAR OPS: 139.05 230.9
WX ASOS at LGB (5 nm W): PHONE 562-424-0572
WX ASOS at FUL (6 nm NE): PHONE 714-870-1372
WX AWOS-3PT at CPM (11 nm NW): 127.150 (310-631-4958)
WX ASOS at SNA (11 nm SE): PHONE 714-424-0590
WX ASOS at HHR (16 nm NW): PHONE 310-973-8930
WX AWOS-3PT at EMT (18 nm N): 118.75 ((626) 444-1107)
WX ASOS at LAX (20 nm NW): PHONE 310-568-1486
  • FOR CLNC DEL WHEN ATCT CLSD CALL SOCAL APCH (800) 448-3724.

Nearby radio navigation aids

VOR radial/distance  VOR name  Freq  Var
SLI at fieldSEAL BEACH VORTAC115.7015E
ELBr279/17.4EL TORO VOR/DME117.2014E
LAXr099/20.8LOS ANGELES VORTAC113.6015E
POMr202/21.7POMONA VORTAC110.4015E
SMOr108/24.1SANTA MONICA VOR/DME110.8015E
PDZr238/27.1PARADISE VORTAC112.2015E
SXCr021/31.0SANTA CATALINA VORTAC111.4015E
RALr238/(31.6)RIVERSIDE VOR112.4014E
VNYr125/34.0VAN NUYS VOR/DME113.1015E

 
NDB name  Hdg/Dist  Freq  Var  ID
BECCA019/2.423314ELG .-.. --.
EL MONTE168/17.935915EEMT . -- -

Airport Services

Fuel available: A1+ JET-B+
Oil available: AFLD OPS ADVSY 126.2/237.2 WHEN LOS ALAMITOS TWR CLSD.

Runway Information

Runway 4R/22L

Dimensions: 7999 x 200 ft. / 2438 x 61 m
Surface: asphalt/concrete
Weight bearing capacity: 
PCN 36 /R/C/W/T
Runway edge lights: high intensity
HIRL ELEV 1' AND LCTD 5' FR EDGE OF RWY.
RUNWAY 4R  RUNWAY 22L
Latitude: 33-47.026767N33-47.783300N
Longitude: 118-03.613500W118-02.319133W
Elevation: 21.2 ft.35.5 ft.
Traffic pattern: leftleft
Visual slope indicator: 4-light PAPI on left (3.00 degrees glide path)
Approach lights: SALSF
Runway end identifier lights: noyes
Centerline lights: yesyes
Touchdown point: yes, no lightsyes, no lights

Runway 4L/22R

Dimensions: 5901 x 150 ft. / 1799 x 46 m
Surface: PEM
Weight bearing capacity: 
PCN 36 /F/C/W/T
Runway edge lights: medium intensity
RUNWAY 4L  RUNWAY 22R
Latitude: 33-47.118333N33-47.676383N
Longitude: 118-03.723767W118-02.768750W
Elevation: 20.0 ft.26.9 ft.
Traffic pattern: leftleft
Touchdown point: yes, no lightsyes, no lights

Airport Ownership and Management from official FAA records

Ownership: U.S. Army
Owner: US ARMY
AASF, CAARNG, 4612 DOOLITTLE AVE
LOS ALAMITOS, CA 90720
Phone 562-795-2571
Manager: BASE OPS
LOS ALAMITOS, CA 90720
Phone 562-795-2571

Additional Remarks

RWY-LGTS: RWY 22L - SF.
MISC - WINDS ARE ACCURATE TO WITHIN PLUS OR MINUS 4 KNOTS.
MISC: TO EXCEED WT BRG CAP CTC AFLD OPS. SEE FLIP AP/1 RTE AND AREA RSTD AND SUPPLEMENT ARPT RMK.
ARNG AASF OPS- OPR 1530-2330Z++ MON-FRI; EXC HOL. DSN 972-2006, C562-795-2006. HTTP://WWW.CALGUARD.CA.GOV/AASF1.
RSTD: FOR SPECIAL AFTER HRS LNDG AND AFLD LIGHTING REQUESTS FOR ACFT WEIGHING UNDER 14,500 LBS, CALL AFLD OPS AT 562-795-2571.
RWY-17/35 CLSD (2500X150 ASP).
JASU - 4(E3) 2(AGPU) 2(AM32A-60B-WO DC PWR).
FUEL - J8
NS ABTMT - PRO IN EFF. ALL DEP RQR BRIEFINGS.

Instrument Procedures

NOTE: All procedures below are presented as PDF files. If you need a reader for these files, you should download the free Adobe Reader.

NOT FOR NAVIGATION. Please procure official charts for flight.
FAA instrument procedures published for use from 29 March 2018 at 0901Z to 26 April 2018 at 0900Z.

 
STARs - Standard Terminal Arrivals
KAYOH SEVEN   download (302KB)
 
IAPs - Instrument Approach Procedures
RNAV (GPS) RWY 22L   download (53KB)
VOR OR TACAN RWY 22L   download (139KB)
NDB RWY 22L   download (117KB)
Radar Approach Procedures available   download (47KB)
 
Departure Procedures
HAWWC TWO (RNAV) **CHANGED**   download (174KB)
NOTE: Special Take-Off Minimums/Departure Procedures apply   download (215KB)

Other nearby airports with instrument procedures:

KLGB - Long Beach Airport (Daugherty Field) (5 nm W)
KFUL - Fullerton Municipal Airport (6 nm NE)
KSNA - John Wayne-Orange County Airport (11 nm SE)
KTOA - Zamperini Field Airport (14 nm W)
KHHR - Jack Northrop Field/Hawthorne Municipal Airport (16 nm NW)
KEMT - San Gabriel Valley Airport (18 nm N)
KLAX - Los Angeles International Airport (20 nm NW)
 
Loc | Ops | Rwys | IFR | FBO | Links
Com | Nav | Svcs | Stats | Notes

San Bernardino International Airport Authority
 
Area around KSLI (Los Alamitos Army Airfield)
 
Road maps at: MapQuest Bing Google
 
Aerial photo
WARNING: Photo may not be current or correct
Aerial photo of KSLI (Los Alamitos Army Airfield)
Photo courtesy of FocalFlight.com
Photo taken 01-Nov-2015
looking north.

Do you have a better or more recent aerial photo of Los Alamitos Army Airfield that you would like to share? If so, please send us your photo.

 
Sectional chart

 
Airport diagram
Diagram of KSLI (Los Alamitos Army Airfield)
Download PDF
of official airport diagram from the FAA

 
Airport distance calculator
Flying to Los Alamitos Army Airfield? Find the distance to fly.

From to KSLI

Sunrise and sunset
Times for 22-Apr-2018
 Local
(UTC-7)
 Zulu
(UTC)
Morning civil twilight05:4812:48
Sunrise06:1413:14
Sunset19:2702:27
Evening civil twilight19:5402:54

Current date and time
Zulu (UTC)  23-Apr-2018 06:27:56
Local (UTC-7)  22-Apr-2018 23:27:56
 
METAR
KSLI 
2nm SE 
230603Z AUTO 00000KT 8SM BKN005 14/14 A2996 RMK AO2 BKN V FEW SLP148
KLGB 
5nm W 
230607Z 21004KT 7SM FEW007 16/14 A2997 RMK AO2 T01610139
KFUL 
6nm NE 
230553Z AUTO 00000KT 7SM CLR 16/13 A2996 RMK AO2 SLP142 T01560133 10283 20156 50018
KSNA 
12nm SE 
230553Z 22003KT 6SM BR FEW007 16/14 A2996 RMK AO2 SLP146 LAST T01560139 10233 20156 50015
KTOA 
13nm W 
230247Z 29010KT 10SM FEW010 16/12 A2990
KHHR 
16nm NW 
230553Z AUTO 00000KT 9SM CLR 16/13 A2997 RMK AO2 SLP146 T01560133 10194 20150 51018
KEMT 
17nm N 
230245Z 20008KT 10SM CLR 22/08 A2990
KCQT 
18nm NW 
230556Z AUTO 00000KT 6SM BR FEW006 16/13 A2996 RMK AO2 T01560133
KLAX 
19nm NW 
230553Z 00000KT 7SM FEW005 15/13 A2996 RMK AO2 SLP145 VIS W 2 1/2 T01500128 10189 20150 51016
TAF
KSLI 
2nm SE 
230503Z 2305/2411 VRB06KT 9999 FEW250 QNH2991INS BECMG 2310/2311 VRB06KT 9999 SCT030 QNH2995INS TEMPO 2312/2315 8000 BR BKN030 BECMG 2320/2321 23009KT 9999 FEW250 QNH2994INS BECMG 2402/2403 VRB06KT 9999 SCT100 QNH2996INS BECMG 2408/2409 VRB06KT 6000 BR BKN020 QNH2999INS TX21/2321Z TN10/2312Z
KLGB 
5nm W 
230540Z 2306/2406 VRB03KT P6SM SKC FM230900 VRB03KT 3SM BR OVC006 FM231600 17006KT P6SM FEW012 FM232000 19008KT P6SM SKC FM232300 30008KT P6SM SKC FM240500 VRB03KT P6SM OVC008
KSNA 
12nm SE 
230520Z 2306/2406 VRB04KT 5SM BR BKN006 FM231500 VRB04KT 6SM BR FEW008 FM231900 22008KT P6SM FEW250 FM240100 VRB04KT P6SM SCT006
KLAX 
19nm NW 
230540Z 2306/2412 VRB03KT P6SM SCT005 FM230800 24006KT 6SM BR BKN005 FM231000 VRB03KT 2SM BR OVC004 FM231200 VRB03KT 1/2SM FG OVC003 FM231500 VRB03KT 2SM BR BKN007 FM231700 23006KT 4SM HZ BKN010 FM232000 25010KT P6SM SCT012 FM240300 VRB03KT 4SM BR BKN007
NOTAMs
Click for the latest NOTAMs
NOTAMs are issued by the DoD/FAA and will open in a separate window not controlled by AirNav.

 

 
 

Would you like to see your business listed on this page?

 If your business provides an interesting product or service to pilots, flight crews, aircraft, or users of the Los Alamitos Army Airfield, you should consider listing it here.  To start the listing process, click on the button below
 
Add a business
 

Other Pages about Los Alamitos Army Airfield

www.aircav.com/sli.html
 
Update a link
 
Copyright © AirNav, LLC. All rights reserved. Privacy Policy  Contact